createdAt,value
2019-05-23T00:01:27.210Z,11.58
2019-05-23T00:03:59.098Z,11.62
2019-05-23T00:06:29.822Z,11.56
2019-05-23T00:09:00.872Z,11.72
2019-05-23T00:11:32.309Z,11.53
2019-05-23T00:14:08.596Z,11.47
2019-05-23T00:16:38.914Z,11.40
2019-05-23T00:19:08.965Z,11.28
2019-05-23T00:21:39.153Z,11.14
2019-05-23T00:24:10.792Z,11.02
2019-05-23T00:26:41.379Z,11.13
2019-05-23T00:29:12.228Z,11.36
2019-05-23T00:31:45.081Z,11.40
2019-05-23T00:34:15.277Z,11.08
2019-05-23T00:36:46.141Z,11.10
2019-05-23T00:39:16.781Z,11.28
2019-05-23T00:41:46.911Z,11.20
2019-05-23T00:44:17.438Z,11.21
2019-05-23T00:46:47.495Z,11.31
2019-05-23T00:49:18.409Z,11.16
2019-05-23T00:51:48.445Z,10.91
2019-05-23T00:54:19.584Z,10.65
2019-05-23T00:56:50.259Z,10.71
2019-05-23T00:59:26.901Z,10.79
2019-05-23T01:01:52.500Z,10.87
2019-05-23T01:04:22.636Z,10.64
2019-05-23T01:06:53.912Z,10.52
2019-05-23T01:09:25.651Z,10.43
2019-05-23T01:11:55.517Z,10.37
2019-05-23T01:14:25.796Z,10.39
2019-05-23T01:16:56.010Z,10.43
2019-05-23T01:19:26.212Z,10.61
2019-05-23T01:21:58.207Z,10.56
2019-05-23T01:24:36.207Z,10.62
2019-05-23T01:27:07.125Z,10.79
2019-05-23T01:29:42.381Z,10.78
2019-05-23T01:32:14.585Z,10.51
2019-05-23T01:34:46.569Z,10.36
2019-05-23T01:37:19.190Z,10.27
2019-05-23T01:39:49.523Z,10.16
2019-05-23T01:42:20.462Z,10.13
2019-05-23T01:44:52.004Z,10.12
2019-05-23T01:47:23.436Z,10.05
2019-05-23T01:49:54.631Z,10.12
2019-05-23T01:52:25.410Z,10.18
2019-05-23T01:54:55.225Z,10.00
2019-05-23T01:57:25.192Z,10.01
2019-05-23T02:00:09.111Z,10.30
2019-05-23T02:02:28.642Z,10.16
2019-05-23T02:04:59.286Z,10.02
2019-05-23T02:07:30.195Z,9.94
2019-05-23T02:10:00.373Z,10.13
2019-05-23T02:12:30.794Z,10.30
2019-05-23T02:15:03.138Z,10.05
2019-05-23T02:17:33.598Z,10.00
2019-05-23T02:20:04.443Z,9.90
2019-05-23T02:22:34.340Z,9.87
2019-05-23T02:25:07.892Z,9.90
2019-05-23T02:27:38.356Z,9.88
2019-05-23T02:30:30.072Z,9.80
2019-05-23T02:32:41.843Z,9.71
2019-05-23T02:35:13.454Z,9.78
2019-05-23T02:37:44.901Z,9.82
2019-05-23T02:40:25.379Z,9.78
2019-05-23T02:42:59.584Z,9.66
2019-05-23T02:45:49.154Z,9.70
2019-05-23T02:48:35.947Z,9.71
2019-05-23T02:51:08.921Z,9.70
2019-05-23T02:53:40.944Z,9.65
2019-05-23T02:56:14.662Z,9.57
2019-05-23T02:58:47.782Z,9.60
2019-05-23T03:01:31.301Z,9.60
2019-05-23T03:04:04.769Z,9.69
2019-05-23T03:06:37.088Z,9.59
2019-05-23T03:09:08.865Z,9.57
2019-05-23T03:11:43.564Z,9.66
2019-05-23T03:14:16.613Z,9.65
2019-05-23T03:16:48.706Z,9.66
2019-05-23T03:19:27.259Z,9.66
2019-05-23T03:22:01.170Z,9.53
2019-05-23T03:24:33.299Z,9.54
2019-05-23T03:27:05.276Z,9.57
2019-05-23T03:29:35.918Z,9.48
2019-05-23T03:32:13.094Z,9.35
2019-05-23T03:34:47.402Z,9.42
2019-05-23T03:37:17.204Z,9.46
2019-05-23T03:39:47.384Z,9.36
2019-05-23T03:42:17.535Z,9.19
2019-05-23T03:44:48.244Z,9.31
2019-05-23T03:47:19.836Z,9.47
2019-05-23T03:49:50.700Z,9.51
2019-05-23T03:52:21.706Z,9.39
2019-05-23T03:54:52.557Z,9.38
2019-05-23T03:57:25.849Z,9.53
2019-05-23T03:59:56.476Z,9.60
2019-05-23T04:02:26.754Z,9.61
2019-05-23T04:04:58.653Z,9.63
2019-05-23T04:07:30.248Z,9.67
2019-05-23T04:10:00.249Z,9.52
2019-05-23T04:12:30.370Z,9.44
2019-05-23T04:15:00.155Z,9.62
2019-05-23T04:17:30.017Z,9.71
2019-05-23T04:20:00.508Z,9.54
2019-05-23T04:22:30.550Z,9.40
2019-05-23T04:25:02.165Z,9.34
2019-05-23T04:27:32.337Z,9.32
2019-05-23T04:30:02.428Z,9.31
2019-05-23T04:32:32.488Z,9.56
2019-05-23T04:35:02.710Z,9.74
2019-05-23T04:37:32.858Z,9.85
2019-05-23T04:40:03.283Z,9.75
2019-05-23T04:42:33.371Z,9.67
2019-05-23T04:45:03.633Z,9.65
2019-05-23T04:47:33.409Z,9.75
2019-05-23T04:50:06.501Z,9.77
2019-05-23T04:52:37.255Z,9.96
2019-05-23T04:55:08.573Z,9.94
2019-05-23T04:57:38.368Z,9.93
2019-05-23T05:00:11.006Z,9.98
2019-05-23T05:02:41.494Z,10.18
2019-05-23T05:05:12.209Z,10.23
2019-05-23T05:07:42.039Z,10.31
2019-05-23T05:10:14.432Z,10.38
2019-05-23T05:12:44.908Z,10.53
2019-05-23T05:15:15.242Z,10.60
2019-05-23T05:17:46.054Z,10.68
2019-05-23T05:20:16.692Z,10.91
2019-05-23T05:22:47.093Z,11.06
2019-05-23T05:25:17.345Z,11.17
2019-05-23T05:27:47.322Z,11.21
2019-05-23T05:30:17.470Z,11.34
2019-05-23T05:32:47.735Z,11.43
2019-05-23T05:35:18.028Z,11.63
2019-05-23T05:37:47.996Z,11.77
2019-05-23T05:40:18.491Z,11.90
2019-05-23T05:42:48.323Z,11.97
2019-05-23T05:45:20.338Z,12.16
2019-05-23T05:47:50.418Z,12.21
2019-05-23T05:50:20.961Z,12.45
2019-05-23T05:52:50.942Z,12.50
2019-05-23T05:55:21.190Z,12.61
2019-05-23T05:57:51.085Z,12.81
2019-05-23T06:00:29.132Z,12.97
2019-05-23T06:03:05.310Z,13.09
2019-05-23T06:05:37.287Z,13.19
2019-05-23T06:08:08.821Z,13.32
2019-05-23T06:10:38.967Z,13.52
2019-05-23T06:13:08.948Z,13.66
2019-05-23T06:15:39.002Z,13.76
2019-05-23T06:18:09.175Z,13.82
2019-05-23T06:20:42.998Z,13.74
2019-05-23T06:23:13.384Z,13.83
2019-05-23T06:25:43.556Z,13.91
2019-05-23T06:28:15.364Z,13.94
2019-05-23T06:30:45.931Z,14.08
2019-05-23T06:33:23.511Z,14.19
2019-05-23T06:35:48.972Z,14.26
2019-05-23T06:38:18.881Z,14.28
2019-05-23T06:40:48.882Z,14.35
2019-05-23T06:43:18.878Z,14.45
2019-05-23T06:45:48.790Z,14.57
2019-05-23T06:48:21.099Z,14.64
2019-05-23T06:50:51.349Z,14.68
2019-05-23T06:53:21.315Z,14.74
2019-05-23T06:55:51.283Z,14.70
2019-05-23T06:58:21.997Z,14.88
2019-05-23T07:00:52.409Z,14.96
2019-05-23T07:03:39.891Z,14.98
2019-05-23T07:05:54.102Z,15.07
2019-05-23T07:08:27.182Z,15.24
2019-05-23T07:10:57.171Z,15.27
2019-05-23T07:13:29.599Z,15.43
2019-05-23T07:15:59.515Z,15.51
2019-05-23T07:18:29.529Z,15.58
2019-05-23T07:20:59.456Z,15.66
2019-05-23T07:23:29.656Z,15.85
2019-05-23T07:25:59.862Z,15.96
2019-05-23T07:28:30.139Z,15.98
2019-05-23T07:31:00.506Z,16.10
2019-05-23T07:33:30.421Z,16.06
2019-05-23T07:36:00.336Z,16.09
2019-05-23T07:38:30.231Z,16.28
2019-05-23T07:41:00.611Z,16.31
2019-05-23T07:43:30.488Z,16.27
2019-05-23T07:46:01.375Z,16.23
2019-05-23T07:48:31.246Z,16.18
2019-05-23T07:51:01.333Z,16.39
2019-05-23T07:53:50.800Z,16.49
2019-05-23T07:56:22.625Z,16.65
2019-05-23T07:58:52.485Z,16.76
2019-05-23T08:01:24.171Z,16.57
2019-05-23T08:03:55.884Z,16.61
2019-05-23T08:06:26.107Z,16.64
2019-05-23T08:08:56.069Z,16.83
2019-05-23T08:11:26.659Z,16.97
2019-05-23T08:13:56.652Z,16.84
2019-05-23T08:16:26.954Z,16.82
2019-05-23T08:18:56.847Z,16.81
2019-05-23T08:21:26.776Z,16.88
2019-05-23T08:23:56.557Z,17.15
2019-05-23T08:26:27.408Z,17.22
2019-05-23T08:29:24.221Z,17.16
2019-05-23T08:31:29.559Z,17.47
2019-05-23T08:33:59.966Z,17.64
2019-05-23T08:36:30.304Z,17.68
2019-05-23T08:39:01.559Z,17.69
2019-05-23T08:41:32.233Z,17.51
2019-05-23T08:44:02.321Z,17.59
2019-05-23T08:46:32.121Z,17.61
2019-05-23T08:49:01.914Z,17.86
2019-05-23T08:51:31.705Z,17.91
2019-05-23T08:54:01.973Z,18.08
2019-05-23T08:56:31.780Z,17.99
2019-05-23T08:59:01.580Z,17.98
2019-05-23T09:01:31.376Z,18.00
2019-05-23T09:04:01.811Z,18.02
2019-05-23T09:06:33.432Z,18.16
2019-05-23T09:09:27.739Z,18.17
2019-05-23T09:11:37.881Z,18.30
2019-05-23T09:14:07.841Z,18.31
2019-05-23T09:16:38.321Z,18.28
2019-05-23T09:19:08.299Z,18.08
2019-05-23T09:21:38.443Z,18.18
2019-05-23T09:24:09.727Z,18.36
2019-05-23T09:26:39.525Z,18.35
2019-05-23T09:29:09.711Z,18.63
2019-05-23T09:31:40.024Z,18.62
2019-05-23T09:34:09.899Z,18.54
2019-05-23T09:36:39.769Z,18.46
2019-05-23T09:39:11.651Z,18.51
2019-05-23T09:41:41.453Z,18.71
2019-05-23T09:44:11.236Z,18.74
2019-05-23T09:46:41.050Z,18.94
2019-05-23T09:49:11.597Z,18.95
2019-05-23T09:51:41.484Z,18.92
2019-05-23T09:54:11.405Z,18.82
2019-05-23T09:56:41.383Z,18.95
2019-05-23T09:59:11.259Z,19.06
2019-05-23T10:01:41.066Z,19.23
2019-05-23T10:04:10.892Z,19.48
2019-05-23T10:06:40.911Z,19.66
2019-05-23T10:09:10.743Z,19.48
2019-05-23T10:11:40.529Z,19.44
2019-05-23T10:14:12.036Z,19.59
2019-05-23T10:16:42.022Z,19.57
2019-05-23T10:19:11.823Z,19.66
2019-05-23T10:21:41.650Z,19.60
2019-05-23T10:24:11.713Z,19.54
2019-05-23T10:26:41.565Z,19.47
2019-05-23T10:29:11.358Z,19.59
2019-05-23T10:31:41.154Z,19.78
2019-05-23T10:34:11.026Z,19.64
2019-05-23T10:36:40.790Z,19.57
2019-05-23T10:39:13.014Z,19.67
2019-05-23T10:41:43.444Z,19.84
2019-05-23T10:44:13.408Z,19.82
2019-05-23T10:46:43.205Z,19.90
2019-05-23T10:49:13.000Z,19.94
2019-05-23T10:51:42.781Z,19.87
2019-05-23T10:54:13.504Z,20.03
2019-05-23T10:56:43.280Z,20.13
2019-05-23T10:59:13.059Z,20.12
2019-05-23T11:01:43.757Z,20.30
2019-05-23T11:04:13.734Z,20.31
2019-05-23T11:06:43.699Z,20.44
2019-05-23T11:09:14.530Z,20.25
2019-05-23T11:11:44.526Z,20.23
2019-05-23T11:14:15.171Z,20.50
2019-05-23T11:16:45.285Z,20.46
2019-05-23T11:19:15.174Z,20.35
2019-05-23T11:21:44.986Z,20.23
2019-05-23T11:24:15.140Z,20.21
2019-05-23T11:26:45.567Z,20.34
2019-05-23T11:29:15.348Z,20.37
2019-05-23T11:31:45.250Z,20.37
2019-05-23T11:34:15.054Z,20.25
2019-05-23T11:36:44.903Z,20.21
2019-05-23T11:39:15.251Z,20.31
2019-05-23T11:41:45.072Z,20.22
2019-05-23T11:44:14.861Z,20.51
2019-05-23T11:46:44.686Z,20.67
2019-05-23T11:49:14.962Z,20.59
2019-05-23T11:51:45.035Z,20.47
2019-05-23T11:54:15.527Z,20.38
2019-05-23T11:56:45.482Z,20.42
2019-05-23T11:59:15.546Z,20.51
2019-05-23T12:01:49.694Z,20.43
2019-05-23T12:04:20.891Z,20.45
2019-05-23T12:06:55.946Z,20.61
2019-05-23T12:09:23.877Z,20.61
2019-05-23T12:11:53.941Z,20.62
2019-05-23T12:14:23.801Z,20.74
2019-05-23T12:16:55.285Z,20.86
2019-05-23T12:19:25.442Z,20.81
2019-05-23T12:21:55.646Z,21.00
2019-05-23T12:24:25.661Z,21.06
2019-05-23T12:26:55.507Z,20.79
2019-05-23T12:29:25.377Z,20.77
2019-05-23T12:31:55.297Z,20.93
2019-05-23T12:34:25.196Z,21.11
2019-05-23T12:37:14.301Z,21.05
2019-05-23T12:39:27.220Z,21.01
2019-05-23T12:41:57.009Z,20.94
2019-05-23T12:44:27.106Z,20.92
2019-05-23T12:46:57.121Z,20.98
2019-05-23T12:49:28.600Z,20.96
2019-05-23T12:51:58.953Z,21.01
2019-05-23T12:54:29.424Z,21.04
2019-05-23T12:56:59.230Z,20.92
2019-05-23T12:59:29.022Z,20.93
2019-05-23T13:02:00.017Z,20.93
2019-05-23T13:04:29.833Z,21.00
2019-05-23T13:06:59.642Z,21.17
2019-05-23T13:09:29.748Z,21.24
2019-05-23T13:11:59.559Z,21.32
2019-05-23T13:14:29.625Z,21.32
2019-05-23T13:17:01.043Z,21.23
2019-05-23T13:19:31.142Z,21.09
2019-05-23T13:22:01.505Z,21.13
2019-05-23T13:24:50.676Z,21.16
2019-05-23T13:27:03.698Z,21.33
2019-05-23T13:29:33.507Z,21.39
2019-05-23T13:32:05.255Z,21.26
2019-05-23T13:34:35.087Z,21.32
2019-05-23T13:37:06.625Z,21.33
2019-05-23T13:39:36.482Z,21.31
2019-05-23T13:42:06.414Z,21.43
2019-05-23T13:44:36.490Z,21.35
2019-05-23T13:47:06.373Z,21.44
2019-05-23T13:49:36.428Z,21.49
2019-05-23T13:52:06.214Z,21.39
2019-05-23T13:54:37.109Z,21.63
2019-05-23T13:57:08.785Z,21.49
2019-05-23T13:59:38.648Z,21.32
2019-05-23T14:02:09.563Z,21.22
2019-05-23T14:04:39.707Z,21.25
2019-05-23T14:07:10.694Z,21.40
2019-05-23T14:09:40.526Z,21.36
2019-05-23T14:12:25.997Z,21.33
2019-05-23T14:14:42.125Z,21.55
2019-05-23T14:17:28.905Z,21.70
2019-05-23T14:19:58.929Z,21.86
2019-05-23T14:22:29.424Z,21.82
2019-05-23T14:24:59.250Z,21.68
2019-05-23T14:27:30.655Z,21.66
2019-05-23T14:30:09.507Z,21.80
2019-05-23T14:32:49.974Z,21.87
2019-05-23T14:35:21.742Z,21.96
2019-05-23T14:37:53.161Z,22.09
2019-05-23T14:40:23.220Z,22.02
2019-05-23T14:42:54.651Z,22.05
2019-05-23T14:45:32.254Z,22.09
2019-05-23T14:48:04.009Z,22.13
2019-05-23T14:50:48.139Z,22.08
2019-05-23T14:53:22.278Z,22.08
2019-05-23T14:55:52.232Z,21.85
2019-05-23T14:58:22.107Z,21.76
2019-05-23T15:00:52.923Z,21.72
2019-05-23T15:03:23.182Z,21.85
2019-05-23T15:05:53.271Z,22.01
2019-05-23T15:08:24.652Z,21.99
2019-05-23T15:10:54.808Z,21.98
2019-05-23T15:13:25.799Z,21.90
2019-05-23T15:15:55.897Z,21.76
2019-05-23T15:18:27.046Z,21.71
2019-05-23T15:20:58.052Z,21.69
2019-05-23T15:23:29.073Z,21.71
2019-05-23T15:25:59.869Z,21.84
2019-05-23T15:28:30.966Z,22.12
2019-05-23T15:31:01.966Z,22.13
2019-05-23T15:33:32.978Z,22.23
2019-05-23T15:36:03.411Z,22.15
2019-05-23T15:38:34.403Z,22.08
2019-05-23T15:41:06.189Z,22.18
2019-05-23T15:43:36.746Z,22.01
2019-05-23T15:46:08.413Z,21.90
2019-05-23T15:48:39.834Z,21.72
2019-05-23T15:51:11.759Z,21.63
2019-05-23T15:53:50.303Z,21.70
2019-05-23T15:56:28.921Z,21.76
2019-05-23T15:59:13.489Z,21.91
2019-05-23T16:02:01.841Z,22.07
2019-05-23T16:04:32.480Z,22.02
2019-05-23T16:07:03.880Z,21.79
2019-05-23T16:09:35.256Z,21.67
2019-05-23T16:12:06.520Z,21.61
2019-05-23T16:14:38.488Z,21.52
2019-05-23T16:17:11.242Z,21.48
2019-05-23T16:19:41.799Z,21.46
2019-05-23T16:22:12.326Z,21.59
2019-05-23T16:24:43.508Z,21.71
2019-05-23T16:27:14.503Z,21.90
2019-05-23T16:29:44.926Z,22.00
2019-05-23T16:32:15.203Z,22.11
2019-05-23T16:34:46.321Z,22.05
2019-05-23T16:37:16.638Z,22.22
2019-05-23T16:39:49.703Z,22.17
2019-05-23T16:42:20.466Z,22.08
2019-05-23T16:44:51.165Z,22.00
2019-05-23T16:47:21.992Z,21.87
2019-05-23T16:49:52.931Z,21.81
2019-05-23T16:52:24.446Z,21.76
2019-05-23T16:54:56.535Z,21.82
2019-05-23T16:57:41.445Z,22.26
2019-05-23T17:00:30.473Z,22.37
2019-05-23T17:03:11.367Z,22.38
2019-05-23T17:06:01.895Z,22.30
2019-05-23T17:08:40.018Z,22.26
2019-05-23T17:11:13.031Z,22.15
2019-05-23T17:13:53.929Z,22.01
2019-05-23T17:16:25.936Z,21.78
2019-05-23T17:19:00.641Z,21.73
2019-05-23T17:21:35.579Z,21.75
2019-05-23T17:24:10.130Z,21.91
2019-05-23T17:26:44.981Z,21.94
2019-05-23T17:29:16.967Z,21.95
2019-05-23T17:31:49.452Z,22.01
2019-05-23T17:34:19.653Z,22.04
2019-05-23T17:36:49.830Z,22.08
2019-05-23T17:39:20.833Z,21.90
2019-05-23T17:41:51.301Z,21.98
2019-05-23T17:44:22.304Z,22.05
2019-05-23T17:46:52.493Z,22.06
2019-05-23T17:49:22.761Z,22.03
2019-05-23T17:51:53.755Z,22.15
2019-05-23T17:54:24.667Z,22.24
2019-05-23T17:56:55.682Z,22.17
2019-05-23T17:59:25.877Z,22.32
2019-05-23T18:01:56.528Z,22.36
2019-05-23T18:04:26.636Z,22.44
2019-05-23T18:06:57.693Z,22.53
2019-05-23T18:09:28.334Z,22.44
2019-05-23T18:11:59.685Z,22.35
2019-05-23T18:14:30.866Z,22.12
2019-05-23T18:17:01.196Z,21.90
2019-05-23T18:19:31.852Z,21.62
2019-05-23T18:22:02.775Z,21.59
2019-05-23T18:24:33.472Z,21.41
2019-05-23T18:27:06.171Z,21.25
2019-05-23T18:29:36.499Z,21.03
2019-05-23T18:32:09.395Z,20.91
2019-05-23T18:34:40.929Z,20.70
2019-05-23T18:37:10.903Z,20.55
2019-05-23T18:39:41.008Z,20.49
2019-05-23T18:42:11.764Z,20.53
2019-05-23T18:44:43.134Z,20.45
2019-05-23T18:47:15.967Z,20.33
2019-05-23T18:49:47.239Z,20.18
2019-05-23T18:52:17.849Z,20.21
2019-05-23T18:54:47.849Z,20.02
2019-05-23T18:57:18.341Z,19.92
2019-05-23T18:59:48.779Z,19.81
2019-05-23T19:02:19.109Z,19.74
2019-05-23T19:04:51.293Z,19.67
2019-05-23T19:07:21.548Z,19.60
2019-05-23T19:09:51.441Z,19.57
2019-05-23T19:12:22.760Z,19.41
2019-05-23T19:14:53.850Z,19.31
2019-05-23T19:17:24.688Z,19.31
2019-05-23T19:19:55.000Z,19.24
2019-05-23T19:22:25.788Z,19.14
2019-05-23T19:24:56.266Z,19.14
2019-05-23T19:27:26.356Z,19.06
2019-05-23T19:29:58.045Z,19.02
2019-05-23T19:32:29.842Z,18.86
2019-05-23T19:35:00.033Z,18.87
2019-05-23T19:37:31.062Z,18.69
2019-05-23T19:40:02.143Z,18.66
2019-05-23T19:42:33.192Z,18.59
2019-05-23T19:45:06.645Z,18.54
2019-05-23T19:47:37.821Z,18.50
2019-05-23T19:50:09.506Z,18.38
2019-05-23T19:52:40.581Z,18.24
2019-05-23T19:55:10.935Z,18.17
2019-05-23T19:57:42.481Z,18.13
2019-05-23T20:00:18.452Z,18.12
2019-05-23T20:02:53.827Z,18.15
2019-05-23T20:05:41.251Z,18.04
2019-05-23T20:08:11.729Z,18.15
2019-05-23T20:10:42.119Z,18.17
2019-05-23T20:13:12.541Z,18.13
2019-05-23T20:15:45.654Z,18.14
2019-05-23T20:18:16.427Z,18.09
2019-05-23T20:20:47.759Z,18.05
2019-05-23T20:23:18.183Z,18.04
2019-05-23T20:25:48.358Z,18.07
2019-05-23T20:28:19.331Z,18.13
2019-05-23T20:30:52.600Z,18.13
2019-05-23T20:33:24.064Z,17.73
2019-05-23T20:35:54.157Z,17.43
2019-05-23T20:38:25.056Z,17.25
2019-05-23T20:40:55.535Z,17.19
2019-05-23T20:43:25.924Z,17.09
2019-05-23T20:45:56.938Z,17.00
2019-05-23T20:48:27.902Z,16.90
2019-05-23T20:50:58.806Z,16.87
2019-05-23T20:53:28.824Z,17.10
2019-05-23T20:55:59.157Z,17.22
2019-05-23T20:58:30.465Z,16.99
2019-05-23T21:01:05.519Z,16.92
2019-05-23T21:03:36.476Z,16.92
2019-05-23T21:06:07.519Z,16.82
2019-05-23T21:08:37.539Z,16.63
2019-05-23T21:11:07.922Z,16.51
2019-05-23T21:13:38.106Z,16.44
2019-05-23T21:16:07.774Z,16.29
2019-05-23T21:18:38.767Z,16.17
2019-05-23T21:21:09.066Z,16.06
2019-05-23T21:23:39.141Z,16.18
2019-05-23T21:26:09.169Z,16.29
2019-05-23T21:28:39.593Z,16.27
2019-05-23T21:31:11.272Z,16.23
2019-05-23T21:33:41.266Z,16.14
2019-05-23T21:36:11.461Z,15.90
2019-05-23T21:38:42.546Z,15.91
2019-05-23T21:41:12.549Z,15.69
2019-05-23T21:43:43.310Z,15.73
2019-05-23T21:46:13.729Z,15.58
2019-05-23T21:48:44.927Z,15.43
2019-05-23T21:51:15.127Z,15.37
2019-05-23T21:53:45.505Z,15.60
2019-05-23T21:56:15.608Z,15.72
2019-05-23T21:58:45.676Z,15.65
2019-05-23T22:01:20.732Z,15.56
2019-05-23T22:03:53.016Z,15.25
2019-05-23T22:06:38.108Z,15.22
2019-05-23T22:09:12.041Z,15.32
2019-05-23T22:11:42.104Z,15.25
2019-05-23T22:14:12.298Z,15.05
2019-05-23T22:16:42.430Z,14.68
2019-05-23T22:19:14.272Z,14.37
2019-05-23T22:21:44.438Z,14.24
2019-05-23T22:24:14.818Z,14.31
2019-05-23T22:26:44.983Z,14.40
2019-05-23T22:29:15.582Z,14.53
2019-05-23T22:31:45.468Z,14.54
2019-05-23T22:34:19.769Z,14.59
2019-05-23T22:36:49.746Z,14.43
2019-05-23T22:39:19.819Z,14.31
2019-05-23T22:41:49.828Z,14.30
2019-05-23T22:44:19.628Z,14.31
2019-05-23T22:46:49.770Z,14.40
2019-05-23T22:49:19.669Z,14.29
2019-05-23T22:51:49.634Z,14.02
2019-05-23T22:54:19.433Z,13.73
2019-05-23T22:56:49.324Z,13.73
2019-05-23T22:59:19.322Z,13.98
2019-05-23T23:01:49.302Z,14.10
2019-05-23T23:04:19.459Z,14.18
2019-05-23T23:06:49.529Z,14.28
2019-05-23T23:09:20.256Z,14.13
2019-05-23T23:11:50.252Z,14.12
2019-05-23T23:14:20.155Z,14.01
2019-05-23T23:16:50.887Z,14.10
2019-05-23T23:19:20.797Z,14.11
2019-05-23T23:21:50.536Z,14.60
2019-05-23T23:24:20.950Z,14.91
2019-05-23T23:26:50.869Z,14.74
2019-05-23T23:29:20.794Z,14.62
2019-05-23T23:31:50.621Z,14.52
2019-05-23T23:34:20.773Z,14.39
2019-05-23T23:36:50.811Z,14.18
2019-05-23T23:39:21.689Z,14.12
2019-05-23T23:41:51.487Z,14.11
2019-05-23T23:44:22.477Z,14.03
2019-05-23T23:47:10.405Z,14.06
2019-05-23T23:49:58.368Z,14.13
2019-05-23T23:52:48.320Z,14.02
2019-05-23T23:55:35.848Z,14.01
2019-05-23T23:58:04.919Z,14.00
